sensor_id;sensor_type;location;lat;lon;timestamp;P1;durP1;ratioP1;P2;durP2;ratioP2
71637;SDS011;59485;43.542;-5.676;2022-10-17T00:00:32;6.83;;;1.03;;
71637;SDS011;59485;43.542;-5.676;2022-10-17T00:02:57;10.13;;;1.37;;
71637;SDS011;59485;43.542;-5.676;2022-10-17T00:05:23;8.15;;;1.20;;
71637;SDS011;59485;43.542;-5.676;2022-10-17T00:07:49;12.93;;;1.37;;
71637;SDS011;59485;43.542;-5.676;2022-10-17T00:10:15;14.32;;;2.17;;
71637;SDS011;59485;43.542;-5.676;2022-10-17T00:12:41;13.63;;;2.15;;
71637;SDS011;59485;43.542;-5.676;2022-10-17T00:15:06;16.33;;;2.10;;
71637;SDS011;59485;43.542;-5.676;2022-10-17T00:17:32;15.32;;;1.50;;
71637;SDS011;59485;43.542;-5.676;2022-10-17T00:19:58;12.17;;;1.63;;
71637;SDS011;59485;43.542;-5.676;2022-10-17T00:22:25;12.60;;;1.40;;
71637;SDS011;59485;43.542;-5.676;2022-10-17T00:24:51;11.80;;;1.92;;
71637;SDS011;59485;43.542;-5.676;2022-10-17T00:27:17;12.30;;;2.10;;
71637;SDS011;59485;43.542;-5.676;2022-10-17T00:29:46;10.70;;;2.13;;
71637;SDS011;59485;43.542;-5.676;2022-10-17T00:32:13;15.32;;;2.15;;
71637;SDS011;59485;43.542;-5.676;2022-10-17T00:34:38;12.80;;;1.37;;
71637;SDS011;59485;43.542;-5.676;2022-10-17T00:37:04;11.70;;;1.73;;
71637;SDS011;59485;43.542;-5.676;2022-10-17T00:39:29;10.18;;;1.27;;
71637;SDS011;59485;43.542;-5.676;2022-10-17T00:41:54;8.40;;;1.50;;
71637;SDS011;59485;43.542;-5.676;2022-10-17T00:46:58;9.55;;;1.23;;
71637;SDS011;59485;43.542;-5.676;2022-10-17T00:49:29;9.30;;;1.40;;
71637;SDS011;59485;43.542;-5.676;2022-10-17T00:51:59;9.88;;;1.42;;
71637;SDS011;59485;43.542;-5.676;2022-10-17T00:54:32;10.20;;;1.50;;
71637;SDS011;59485;43.542;-5.676;2022-10-17T00:57:00;10.18;;;1.25;;
71637;SDS011;59485;43.542;-5.676;2022-10-17T00:59:27;9.52;;;2.00;;
71637;SDS011;59485;43.542;-5.676;2022-10-17T01:02:03;8.57;;;1.38;;
71637;SDS011;59485;43.542;-5.676;2022-10-17T01:04:32;14.20;;;1.35;;
71637;SDS011;59485;43.542;-5.676;2022-10-17T01:06:57;17.30;;;2.97;;
71637;SDS011;59485;43.542;-5.676;2022-10-17T01:09:23;28.43;;;4.13;;
71637;SDS011;59485;43.542;-5.676;2022-10-17T01:11:51;24.90;;;4.05;;
71637;SDS011;59485;43.542;-5.676;2022-10-17T01:26:52;20.90;;;2.78;;
71637;SDS011;59485;43.542;-5.676;2022-10-17T01:32:09;23.55;;;3.45;;
71637;SDS011;59485;43.542;-5.676;2022-10-17T01:34:43;23.63;;;3.17;;
71637;SDS011;59485;43.542;-5.676;2022-10-17T01:39:52;23.98;;;3.65;;
71637;SDS011;59485;43.542;-5.676;2022-10-17T01:45:12;15.27;;;2.15;;
71637;SDS011;59485;43.542;-5.676;2022-10-17T01:47:47;12.37;;;1.97;;
71637;SDS011;59485;43.542;-5.676;2022-10-17T01:50:17;14.02;;;2.50;;
71637;SDS011;59485;43.542;-5.676;2022-10-17T01:52:52;8.32;;;1.67;;
71637;SDS011;59485;43.542;-5.676;2022-10-17T01:55:26;11.15;;;1.83;;
71637;SDS011;59485;43.542;-5.676;2022-10-17T01:58:04;8.52;;;1.80;;
71637;SDS011;59485;43.542;-5.676;2022-10-17T02:00:34;7.40;;;1.30;;
71637;SDS011;59485;43.542;-5.676;2022-10-17T02:03:03;8.32;;;1.23;;
71637;SDS011;59485;43.542;-5.676;2022-10-17T02:05:32;10.45;;;1.40;;
71637;SDS011;59485;43.542;-5.676;2022-10-17T02:08:03;9.23;;;1.33;;
71637;SDS011;59485;43.542;-5.676;2022-10-17T02:10:38;9.55;;;2.00;;
71637;SDS011;59485;43.542;-5.676;2022-10-17T02:16:03;6.25;;;1.00;;
71637;SDS011;59485;43.542;-5.676;2022-10-17T02:24:10;6.53;;;1.25;;
71637;SDS011;59485;43.542;-5.676;2022-10-17T02:29:55;8.65;;;1.88;;
71637;SDS011;59485;43.542;-5.676;2022-10-17T02:34:57;14.32;;;3.13;;
71637;SDS011;59485;43.542;-5.676;2022-10-17T02:37:27;11.20;;;3.13;;
71637;SDS011;59485;43.542;-5.676;2022-10-17T02:39:55;11.23;;;2.43;;
71637;SDS011;59485;43.542;-5.676;2022-10-17T02:42:23;8.07;;;1.90;;
71637;SDS011;59485;43.542;-5.676;2022-10-17T02:44:51;12.95;;;2.38;;
71637;SDS011;59485;43.542;-5.676;2022-10-17T02:47:24;12.23;;;1.80;;
71637;SDS011;59485;43.542;-5.676;2022-10-17T02:49:51;13.13;;;2.22;;
71637;SDS011;59485;43.542;-5.676;2022-10-17T02:52:25;11.73;;;2.03;;
71637;SDS011;59485;43.542;-5.676;2022-10-17T02:55:00;27.70;;;3.28;;
71637;SDS011;59485;43.542;-5.676;2022-10-17T02:57:51;21.30;;;3.25;;
71637;SDS011;59485;43.542;-5.676;2022-10-17T03:00:21;26.70;;;3.65;;
71637;SDS011;59485;43.542;-5.676;2022-10-17T03:02:51;30.95;;;4.72;;
71637;SDS011;59485;43.542;-5.676;2022-10-17T03:05:21;15.90;;;3.13;;
71637;SDS011;59485;43.542;-5.676;2022-10-17T03:07:49;27.80;;;3.75;;
71637;SDS011;59485;43.542;-5.676;2022-10-17T03:10:15;22.20;;;3.92;;
71637;SDS011;59485;43.542;-5.676;2022-10-17T03:12:41;22.20;;;2.95;;
71637;SDS011;59485;43.542;-5.676;2022-10-17T03:15:07;21.30;;;3.03;;
71637;SDS011;59485;43.542;-5.676;2022-10-17T03:17:33;15.80;;;2.50;;
71637;SDS011;59485;43.542;-5.676;2022-10-17T03:19:59;22.27;;;2.50;;
71637;SDS011;59485;43.542;-5.676;2022-10-17T03:22:25;19.17;;;2.47;;
71637;SDS011;59485;43.542;-5.676;2022-10-17T03:24:50;20.40;;;3.03;;
71637;SDS011;59485;43.542;-5.676;2022-10-17T03:27:16;29.70;;;4.00;;
71637;SDS011;59485;43.542;-5.676;2022-10-17T03:29:41;15.40;;;2.13;;
71637;SDS011;59485;43.542;-5.676;2022-10-17T03:32:07;18.50;;;2.77;;
71637;SDS011;59485;43.542;-5.676;2022-10-17T03:34:32;13.40;;;1.57;;
71637;SDS011;59485;43.542;-5.676;2022-10-17T03:36:58;14.33;;;1.83;;
71637;SDS011;59485;43.542;-5.676;2022-10-17T03:39:23;12.37;;;1.50;;
71637;SDS011;59485;43.542;-5.676;2022-10-17T03:41:49;12.27;;;1.90;;
71637;SDS011;59485;43.542;-5.676;2022-10-17T03:44:14;12.00;;;1.30;;
71637;SDS011;59485;43.542;-5.676;2022-10-17T03:46:40;20.60;;;2.77;;
71637;SDS011;59485;43.542;-5.676;2022-10-17T03:49:07;22.90;;;2.50;;
71637;SDS011;59485;43.542;-5.676;2022-10-17T03:51:33;15.82;;;2.03;;
71637;SDS011;59485;43.542;-5.676;2022-10-17T03:53:59;14.90;;;2.93;;
71637;SDS011;59485;43.542;-5.676;2022-10-17T03:56:25;20.15;;;2.50;;
71637;SDS011;59485;43.542;-5.676;2022-10-17T03:58:52;13.60;;;2.10;;
71637;SDS011;59485;43.542;-5.676;2022-10-17T04:01:18;17.23;;;2.17;;
71637;SDS011;59485;43.542;-5.676;2022-10-17T04:03:49;17.43;;;2.63;;
71637;SDS011;59485;43.542;-5.676;2022-10-17T04:06:18;12.43;;;1.92;;
71637;SDS011;59485;43.542;-5.676;2022-10-17T04:08:45;23.25;;;2.83;;
71637;SDS011;59485;43.542;-5.676;2022-10-17T04:11:15;11.43;;;1.25;;
71637;SDS011;59485;43.542;-5.676;2022-10-17T04:13:43;13.03;;;2.50;;
71637;SDS011;59485;43.542;-5.676;2022-10-17T04:16:09;14.90;;;2.38;;
71637;SDS011;59485;43.542;-5.676;2022-10-17T04:18:37;11.40;;;2.05;;
71637;SDS011;59485;43.542;-5.676;2022-10-17T04:21:03;15.83;;;2.10;;
71637;SDS011;59485;43.542;-5.676;2022-10-17T04:23:29;20.60;;;2.50;;
71637;SDS011;59485;43.542;-5.676;2022-10-17T04:25:56;12.52;;;1.83;;
71637;SDS011;59485;43.542;-5.676;2022-10-17T04:28:23;16.13;;;2.10;;
71637;SDS011;59485;43.542;-5.676;2022-10-17T04:30:58;19.30;;;2.60;;
71637;SDS011;59485;43.542;-5.676;2022-10-17T04:33:25;18.85;;;2.75;;
71637;SDS011;59485;43.542;-5.676;2022-10-17T04:35:57;21.77;;;3.73;;
71637;SDS011;59485;43.542;-5.676;2022-10-17T04:38:24;23.58;;;2.63;;
71637;SDS011;59485;43.542;-5.676;2022-10-17T04:40:50;19.13;;;2.88;;
71637;SDS011;59485;43.542;-5.676;2022-10-17T04:43:16;21.27;;;3.00;;
71637;SDS011;59485;43.542;-5.676;2022-10-17T04:45:42;18.33;;;2.67;;
71637;SDS011;59485;43.542;-5.676;2022-10-17T04:48:07;17.47;;;2.60;;
71637;SDS011;59485;43.542;-5.676;2022-10-17T04:50:32;16.63;;;1.97;;
71637;SDS011;59485;43.542;-5.676;2022-10-17T04:52:58;21.02;;;2.58;;
71637;SDS011;59485;43.542;-5.676;2022-10-17T04:55:24;16.40;;;2.37;;
71637;SDS011;59485;43.542;-5.676;2022-10-17T04:57:49;17.43;;;2.10;;
71637;SDS011;59485;43.542;-5.676;2022-10-17T05:00:15;13.03;;;1.53;;
71637;SDS011;59485;43.542;-5.676;2022-10-17T05:02:40;9.93;;;1.77;;
71637;SDS011;59485;43.542;-5.676;2022-10-17T05:05:06;9.32;;;1.33;;
71637;SDS011;59485;43.542;-5.676;2022-10-17T05:07:32;12.43;;;1.23;;
71637;SDS011;59485;43.542;-5.676;2022-10-17T05:09:57;11.80;;;1.20;;
71637;SDS011;59485;43.542;-5.676;2022-10-17T05:12:23;13.83;;;1.40;;
71637;SDS011;59485;43.542;-5.676;2022-10-17T05:14:52;9.50;;;1.83;;
71637;SDS011;59485;43.542;-5.676;2022-10-17T05:17:17;11.23;;;1.48;;
71637;SDS011;59485;43.542;-5.676;2022-10-17T05:19:43;12.30;;;1.50;;
71637;SDS011;59485;43.542;-5.676;2022-10-17T05:22:08;14.27;;;1.90;;
71637;SDS011;59485;43.542;-5.676;2022-10-17T05:24:34;27.02;;;2.45;;
71637;SDS011;59485;43.542;-5.676;2022-10-17T05:26:59;9.57;;;1.23;;
71637;SDS011;59485;43.542;-5.676;2022-10-17T05:29:25;10.67;;;1.40;;
71637;SDS011;59485;43.542;-5.676;2022-10-17T05:31:50;8.77;;;1.17;;
71637;SDS011;59485;43.542;-5.676;2022-10-17T05:34:16;12.53;;;1.27;;
71637;SDS011;59485;43.542;-5.676;2022-10-17T05:36:44;18.80;;;2.78;;
71637;SDS011;59485;43.542;-5.676;2022-10-17T05:39:11;21.17;;;2.93;;
71637;SDS011;59485;43.542;-5.676;2022-10-17T05:41:38;12.85;;;2.30;;
71637;SDS011;59485;43.542;-5.676;2022-10-17T05:44:04;17.13;;;2.50;;
71637;SDS011;59485;43.542;-5.676;2022-10-17T05:46:30;12.32;;;2.20;;
71637;SDS011;59485;43.542;-5.676;2022-10-17T05:48:55;18.57;;;2.30;;
71637;SDS011;59485;43.542;-5.676;2022-10-17T05:51:21;14.67;;;2.63;;
71637;SDS011;59485;43.542;-5.676;2022-10-17T05:53:46;19.97;;;3.30;;
71637;SDS011;59485;43.542;-5.676;2022-10-17T05:56:12;18.27;;;2.10;;
71637;SDS011;59485;43.542;-5.676;2022-10-17T05:58:39;18.98;;;2.30;;
71637;SDS011;59485;43.542;-5.676;2022-10-17T06:01:06;24.00;;;3.57;;
71637;SDS011;59485;43.542;-5.676;2022-10-17T06:03:32;29.73;;;3.10;;
71637;SDS011;59485;43.542;-5.676;2022-10-17T06:06:02;18.92;;;2.83;;
71637;SDS011;59485;43.542;-5.676;2022-10-17T06:08:30;25.98;;;3.15;;
71637;SDS011;59485;43.542;-5.676;2022-10-17T06:10:56;30.10;;;3.33;;
71637;SDS011;59485;43.542;-5.676;2022-10-17T06:13:21;25.50;;;3.37;;
71637;SDS011;59485;43.542;-5.676;2022-10-17T06:15:46;28.20;;;3.70;;
71637;SDS011;59485;43.542;-5.676;2022-10-17T06:18:12;23.57;;;4.07;;
71637;SDS011;59485;43.542;-5.676;2022-10-17T06:20:37;19.97;;;2.63;;
71637;SDS011;59485;43.542;-5.676;2022-10-17T06:23:03;24.42;;;2.97;;
71637;SDS011;59485;43.542;-5.676;2022-10-17T06:25:30;18.07;;;2.93;;
71637;SDS011;59485;43.542;-5.676;2022-10-17T06:27:55;21.67;;;3.45;;
71637;SDS011;59485;43.542;-5.676;2022-10-17T06:30:21;25.50;;;3.75;;
71637;SDS011;59485;43.542;-5.676;2022-10-17T06:32:47;24.03;;;3.97;;
71637;SDS011;59485;43.542;-5.676;2022-10-17T06:35:12;26.80;;;3.07;;
71637;SDS011;59485;43.542;-5.676;2022-10-17T06:37:38;18.70;;;2.92;;
71637;SDS011;59485;43.542;-5.676;2022-10-17T06:40:04;20.03;;;3.33;;
71637;SDS011;59485;43.542;-5.676;2022-10-17T06:42:32;28.40;;;3.85;;
71637;SDS011;59485;43.542;-5.676;2022-10-17T06:44:58;17.52;;;3.47;;
71637;SDS011;59485;43.542;-5.676;2022-10-17T06:47:23;16.90;;;3.00;;
71637;SDS011;59485;43.542;-5.676;2022-10-17T06:49:49;22.67;;;4.03;;
71637;SDS011;59485;43.542;-5.676;2022-10-17T06:52:14;19.85;;;3.95;;
71637;SDS011;59485;43.542;-5.676;2022-10-17T06:54:41;22.60;;;3.33;;
71637;SDS011;59485;43.542;-5.676;2022-10-17T06:57:07;17.58;;;4.43;;
71637;SDS011;59485;43.542;-5.676;2022-10-17T06:59:33;21.80;;;4.23;;
71637;SDS011;59485;43.542;-5.676;2022-10-17T07:01:59;17.50;;;3.60;;
71637;SDS011;59485;43.542;-5.676;2022-10-17T07:04:25;26.65;;;4.97;;
71637;SDS011;59485;43.542;-5.676;2022-10-17T07:06:51;29.70;;;5.47;;
71637;SDS011;59485;43.542;-5.676;2022-10-17T07:09:17;29.90;;;5.43;;
71637;SDS011;59485;43.542;-5.676;2022-10-17T07:14:08;21.58;;;5.35;;
71637;SDS011;59485;43.542;-5.676;2022-10-17T07:16:33;20.83;;;6.77;;
71637;SDS011;59485;43.542;-5.676;2022-10-17T07:18:59;21.20;;;7.00;;
71637;SDS011;59485;43.542;-5.676;2022-10-17T07:21:24;16.47;;;6.63;;
71637;SDS011;59485;43.542;-5.676;2022-10-17T07:23:50;18.80;;;6.60;;
71637;SDS011;59485;43.542;-5.676;2022-10-17T07:26:16;21.40;;;6.47;;
71637;SDS011;59485;43.542;-5.676;2022-10-17T07:28:43;23.35;;;7.15;;
71637;SDS011;59485;43.542;-5.676;2022-10-17T07:31:14;22.20;;;7.10;;
71637;SDS011;59485;43.542;-5.676;2022-10-17T07:33:42;19.67;;;7.60;;
71637;SDS011;59485;43.542;-5.676;2022-10-17T07:36:08;18.53;;;6.43;;
71637;SDS011;59485;43.542;-5.676;2022-10-17T07:38:34;14.68;;;7.00;;
71637;SDS011;59485;43.542;-5.676;2022-10-17T07:41:01;15.93;;;6.25;;
71637;SDS011;59485;43.542;-5.676;2022-10-17T07:43:29;16.77;;;4.93;;
71637;SDS011;59485;43.542;-5.676;2022-10-17T07:45:55;18.30;;;5.30;;
71637;SDS011;59485;43.542;-5.676;2022-10-17T07:48:21;14.98;;;5.57;;
71637;SDS011;59485;43.542;-5.676;2022-10-17T07:50:47;16.90;;;6.27;;
71637;SDS011;59485;43.542;-5.676;2022-10-17T07:53:13;17.02;;;6.18;;
71637;SDS011;59485;43.542;-5.676;2022-10-17T07:55:39;13.57;;;4.80;;
71637;SDS011;59485;43.542;-5.676;2022-10-17T07:58:06;14.48;;;5.35;;
71637;SDS011;59485;43.542;-5.676;2022-10-17T08:00:32;18.58;;;5.88;;
71637;SDS011;59485;43.542;-5.676;2022-10-17T08:02:58;18.10;;;6.13;;
71637;SDS011;59485;43.542;-5.676;2022-10-17T08:05:23;14.57;;;6.25;;
71637;SDS011;59485;43.542;-5.676;2022-10-17T08:07:49;16.20;;;6.10;;
71637;SDS011;59485;43.542;-5.676;2022-10-17T08:10:14;17.50;;;5.73;;
71637;SDS011;59485;43.542;-5.676;2022-10-17T08:12:40;14.37;;;5.47;;
71637;SDS011;59485;43.542;-5.676;2022-10-17T08:15:07;13.43;;;5.18;;
71637;SDS011;59485;43.542;-5.676;2022-10-17T08:17:34;14.43;;;6.05;;
71637;SDS011;59485;43.542;-5.676;2022-10-17T08:20:01;13.87;;;5.10;;
71637;SDS011;59485;43.542;-5.676;2022-10-17T08:22:27;14.20;;;4.53;;
71637;SDS011;59485;43.542;-5.676;2022-10-17T08:24:53;12.20;;;4.03;;
71637;SDS011;59485;43.542;-5.676;2022-10-17T08:27:18;15.32;;;4.45;;
71637;SDS011;59485;43.542;-5.676;2022-10-17T08:29:53;12.48;;;4.78;;
71637;SDS011;59485;43.542;-5.676;2022-10-17T08:32:20;17.67;;;4.70;;
71637;SDS011;59485;43.542;-5.676;2022-10-17T08:34:47;13.80;;;4.65;;
71637;SDS011;59485;43.542;-5.676;2022-10-17T08:37:13;10.97;;;4.67;;
71637;SDS011;59485;43.542;-5.676;2022-10-17T08:39:39;16.40;;;4.88;;
71637;SDS011;59485;43.542;-5.676;2022-10-17T08:45:11;11.40;;;4.53;;
71637;SDS011;59485;43.542;-5.676;2022-10-17T08:47:50;14.15;;;4.63;;
71637;SDS011;59485;43.542;-5.676;2022-10-17T08:56:20;13.30;;;4.20;;
71637;SDS011;59485;43.542;-5.676;2022-10-17T08:58:49;12.50;;;3.45;;
71637;SDS011;59485;43.542;-5.676;2022-10-17T09:01:35;13.47;;;4.20;;
71637;SDS011;59485;43.542;-5.676;2022-10-17T09:06:49;18.80;;;4.10;;
71637;SDS011;59485;43.542;-5.676;2022-10-17T09:20:38;10.02;;;2.45;;
71637;SDS011;59485;43.542;-5.676;2022-10-17T09:23:15;13.13;;;2.80;;
71637;SDS011;59485;43.542;-5.676;2022-10-17T09:25:47;12.77;;;2.78;;
71637;SDS011;59485;43.542;-5.676;2022-10-17T09:33:25;15.45;;;2.63;;
71637;SDS011;59485;43.542;-5.676;2022-10-17T09:35:53;17.15;;;3.25;;
71637;SDS011;59485;43.542;-5.676;2022-10-17T09:38:21;20.30;;;2.55;;
71637;SDS011;59485;43.542;-5.676;2022-10-17T09:40:57;18.47;;;2.10;;
71637;SDS011;59485;43.542;-5.676;2022-10-17T09:43:25;17.95;;;1.70;;
71637;SDS011;59485;43.542;-5.676;2022-10-17T09:46:06;14.43;;;2.30;;
71637;SDS011;59485;43.542;-5.676;2022-10-17T09:48:45;14.50;;;2.70;;
71637;SDS011;59485;43.542;-5.676;2022-10-17T09:51:24;19.08;;;2.60;;
71637;SDS011;59485;43.542;-5.676;2022-10-17T09:53:52;11.10;;;2.27;;
71637;SDS011;59485;43.542;-5.676;2022-10-17T09:56:27;16.40;;;2.50;;
71637;SDS011;59485;43.542;-5.676;2022-10-17T09:58:55;11.63;;;2.00;;
71637;SDS011;59485;43.542;-5.676;2022-10-17T10:01:27;17.83;;;2.33;;
71637;SDS011;59485;43.542;-5.676;2022-10-17T10:04:07;19.88;;;2.85;;
71637;SDS011;59485;43.542;-5.676;2022-10-17T10:06:33;8.40;;;1.93;;
71637;SDS011;59485;43.542;-5.676;2022-10-17T10:08:59;19.42;;;2.58;;
71637;SDS011;59485;43.542;-5.676;2022-10-17T10:14:33;10.00;;;2.42;;
71637;SDS011;59485;43.542;-5.676;2022-10-17T10:17:02;12.60;;;2.70;;
71637;SDS011;59485;43.542;-5.676;2022-10-17T10:19:33;16.43;;;2.57;;
71637;SDS011;59485;43.542;-5.676;2022-10-17T10:22:04;26.92;;;4.75;;
71637;SDS011;59485;43.542;-5.676;2022-10-17T10:24:38;15.38;;;4.43;;
71637;SDS011;59485;43.542;-5.676;2022-10-17T10:27:03;16.00;;;4.90;;
71637;SDS011;59485;43.542;-5.676;2022-10-17T10:32:21;25.98;;;4.20;;
71637;SDS011;59485;43.542;-5.676;2022-10-17T10:37:54;14.83;;;3.27;;
71637;SDS011;59485;43.542;-5.676;2022-10-17T10:40:22;16.20;;;2.53;;
71637;SDS011;59485;43.542;-5.676;2022-10-17T10:42:55;10.38;;;2.88;;
71637;SDS011;59485;43.542;-5.676;2022-10-17T10:45:24;10.48;;;2.60;;
71637;SDS011;59485;43.542;-5.676;2022-10-17T10:47:55;15.07;;;2.85;;
71637;SDS011;59485;43.542;-5.676;2022-10-17T10:50:37;12.20;;;2.03;;
71637;SDS011;59485;43.542;-5.676;2022-10-17T10:55:55;9.45;;;1.90;;
71637;SDS011;59485;43.542;-5.676;2022-10-17T11:00:55;13.65;;;2.15;;
71637;SDS011;59485;43.542;-5.676;2022-10-17T11:03:35;14.57;;;2.20;;
71637;SDS011;59485;43.542;-5.676;2022-10-17T11:06:16;18.75;;;2.05;;
71637;SDS011;59485;43.542;-5.676;2022-10-17T11:08:47;25.05;;;3.75;;
71637;SDS011;59485;43.542;-5.676;2022-10-17T11:11:19;15.23;;;2.42;;
71637;SDS011;59485;43.542;-5.676;2022-10-17T11:14:05;14.98;;;1.88;;
71637;SDS011;59485;43.542;-5.676;2022-10-17T11:20:18;15.63;;;2.50;;
71637;SDS011;59485;43.542;-5.676;2022-10-17T11:22:29;16.75;;;3.17;;
71637;SDS011;59485;43.542;-5.676;2022-10-17T11:25:03;20.05;;;2.33;;
71637;SDS011;59485;43.542;-5.676;2022-10-17T11:27:49;20.73;;;4.57;;
71637;SDS011;59485;43.542;-5.676;2022-10-17T11:30:15;19.17;;;4.47;;
71637;SDS011;59485;43.542;-5.676;2022-10-17T11:33:02;18.35;;;5.00;;
71637;SDS011;59485;43.542;-5.676;2022-10-17T11:40:50;19.55;;;4.10;;
71637;SDS011;59485;43.542;-5.676;2022-10-17T11:46:03;18.27;;;2.53;;
71637;SDS011;59485;43.542;-5.676;2022-10-17T11:51:27;20.50;;;4.50;;
71637;SDS011;59485;43.542;-5.676;2022-10-17T11:54:14;23.33;;;4.90;;
71637;SDS011;59485;43.542;-5.676;2022-10-17T11:57:25;21.00;;;5.13;;
71637;SDS011;59485;43.542;-5.676;2022-10-17T11:59:47;14.63;;;3.22;;
71637;SDS011;59485;43.542;-5.676;2022-10-17T12:02:39;19.52;;;4.53;;
71637;SDS011;59485;43.542;-5.676;2022-10-17T12:05:20;20.93;;;4.50;;
71637;SDS011;59485;43.542;-5.676;2022-10-17T12:10:59;12.48;;;2.90;;
71637;SDS011;59485;43.542;-5.676;2022-10-17T12:21:27;13.80;;;3.22;;
71637;SDS011;59485;43.542;-5.676;2022-10-17T12:24:19;15.90;;;2.30;;
71637;SDS011;59485;43.542;-5.676;2022-10-17T12:27:20;14.20;;;2.45;;
71637;SDS011;59485;43.542;-5.676;2022-10-17T12:30:00;16.90;;;3.30;;
71637;SDS011;59485;43.542;-5.676;2022-10-17T12:32:56;16.45;;;4.13;;
71637;SDS011;59485;43.542;-5.676;2022-10-17T12:35:27;16.60;;;2.08;;
71637;SDS011;59485;43.542;-5.676;2022-10-17T12:51:25;26.50;;;7.82;;
71637;SDS011;59485;43.542;-5.676;2022-10-17T12:53:59;24.30;;;7.32;;
71637;SDS011;59485;43.542;-5.676;2022-10-17T12:56:37;18.40;;;3.47;;
71637;SDS011;59485;43.542;-5.676;2022-10-17T12:59:06;21.70;;;6.03;;
71637;SDS011;59485;43.542;-5.676;2022-10-17T13:01:37;17.45;;;2.70;;
71637;SDS011;59485;43.542;-5.676;2022-10-17T13:04:08;28.52;;;4.90;;
71637;SDS011;59485;43.542;-5.676;2022-10-17T13:06:35;25.40;;;5.90;;
71637;SDS011;59485;43.542;-5.676;2022-10-17T13:09:07;18.37;;;4.63;;
71637;SDS011;59485;43.542;-5.676;2022-10-17T13:11:42;18.52;;;3.65;;
71637;SDS011;59485;43.542;-5.676;2022-10-17T13:14:10;19.77;;;4.65;;
71637;SDS011;59485;43.542;-5.676;2022-10-17T13:16:49;22.33;;;4.93;;
71637;SDS011;59485;43.542;-5.676;2022-10-17T13:19:17;24.33;;;6.45;;
71637;SDS011;59485;43.542;-5.676;2022-10-17T13:21:57;30.60;;;9.48;;
71637;SDS011;59485;43.542;-5.676;2022-10-17T13:24:32;21.70;;;4.57;;
71637;SDS011;59485;43.542;-5.676;2022-10-17T13:27:01;19.20;;;3.97;;
71637;SDS011;59485;43.542;-5.676;2022-10-17T13:29:28;18.23;;;4.37;;
71637;SDS011;59485;43.542;-5.676;2022-10-17T13:31:59;19.88;;;4.15;;
71637;SDS011;59485;43.542;-5.676;2022-10-17T13:34:28;17.60;;;2.90;;
71637;SDS011;59485;43.542;-5.676;2022-10-17T13:36:58;19.83;;;3.00;;
71637;SDS011;59485;43.542;-5.676;2022-10-17T13:39:27;19.25;;;3.05;;
71637;SDS011;59485;43.542;-5.676;2022-10-17T13:41:57;27.03;;;9.00;;
71637;SDS011;59485;43.542;-5.676;2022-10-17T13:44:24;23.20;;;6.53;;
71637;SDS011;59485;43.542;-5.676;2022-10-17T13:46:52;21.20;;;3.55;;
71637;SDS011;59485;43.542;-5.676;2022-10-17T13:52:03;23.38;;;4.18;;
71637;SDS011;59485;43.542;-5.676;2022-10-17T13:54:35;19.00;;;3.27;;
71637;SDS011;59485;43.542;-5.676;2022-10-17T13:57:05;19.08;;;3.50;;
71637;SDS011;59485;43.542;-5.676;2022-10-17T13:59:43;19.83;;;3.13;;
71637;SDS011;59485;43.542;-5.676;2022-10-17T14:02:19;20.98;;;3.53;;
71637;SDS011;59485;43.542;-5.676;2022-10-17T14:10:23;19.48;;;3.13;;
71637;SDS011;59485;43.542;-5.676;2022-10-17T14:12:52;24.38;;;4.00;;
71637;SDS011;59485;43.542;-5.676;2022-10-17T14:15:18;18.85;;;2.92;;
71637;SDS011;59485;43.542;-5.676;2022-10-17T14:17:52;24.17;;;3.92;;
71637;SDS011;59485;43.542;-5.676;2022-10-17T14:20:20;25.40;;;3.17;;
71637;SDS011;59485;43.542;-5.676;2022-10-17T14:22:47;25.77;;;3.58;;
71637;SDS011;59485;43.542;-5.676;2022-10-17T14:25:26;26.13;;;3.92;;
71637;SDS011;59485;43.542;-5.676;2022-10-17T14:30:37;23.73;;;3.37;;
71637;SDS011;59485;43.542;-5.676;2022-10-17T14:33:06;25.25;;;3.97;;
71637;SDS011;59485;43.542;-5.676;2022-10-17T14:35:36;30.65;;;3.83;;
71637;SDS011;59485;43.542;-5.676;2022-10-17T14:38:04;27.90;;;4.00;;
71637;SDS011;59485;43.542;-5.676;2022-10-17T14:40:31;30.20;;;3.92;;
71637;SDS011;59485;43.542;-5.676;2022-10-17T14:43:00;24.20;;;3.40;;
71637;SDS011;59485;43.542;-5.676;2022-10-17T14:45:33;23.55;;;3.50;;
71637;SDS011;59485;43.542;-5.676;2022-10-17T14:48:12;27.48;;;3.78;;
71637;SDS011;59485;43.542;-5.676;2022-10-17T14:50:40;27.92;;;3.85;;
71637;SDS011;59485;43.542;-5.676;2022-10-17T14:55:36;31.90;;;4.03;;
71637;SDS011;59485;43.542;-5.676;2022-10-17T15:03:27;31.30;;;4.55;;
71637;SDS011;59485;43.542;-5.676;2022-10-17T15:08:18;31.25;;;4.40;;
71637;SDS011;59485;43.542;-5.676;2022-10-17T15:10:47;26.45;;;4.15;;
71637;SDS011;59485;43.542;-5.676;2022-10-17T15:13:14;29.75;;;4.55;;
71637;SDS011;59485;43.542;-5.676;2022-10-17T15:15:40;21.48;;;3.03;;
71637;SDS011;59485;43.542;-5.676;2022-10-17T15:18:06;16.77;;;1.88;;
71637;SDS011;59485;43.542;-5.676;2022-10-17T15:20:34;16.40;;;2.90;;
71637;SDS011;59485;43.542;-5.676;2022-10-17T15:23:00;17.23;;;2.47;;
71637;SDS011;59485;43.542;-5.676;2022-10-17T15:25:27;16.70;;;2.05;;
71637;SDS011;59485;43.542;-5.676;2022-10-17T15:27:54;12.60;;;1.90;;
71637;SDS011;59485;43.542;-5.676;2022-10-17T15:30:27;13.32;;;1.80;;
71637;SDS011;59485;43.542;-5.676;2022-10-17T15:32:56;13.95;;;1.88;;
71637;SDS011;59485;43.542;-5.676;2022-10-17T15:35:22;15.90;;;1.48;;
71637;SDS011;59485;43.542;-5.676;2022-10-17T15:37:49;9.50;;;1.60;;
71637;SDS011;59485;43.542;-5.676;2022-10-17T15:40:23;9.57;;;1.67;;
71637;SDS011;59485;43.542;-5.676;2022-10-17T15:42:52;12.05;;;2.50;;
71637;SDS011;59485;43.542;-5.676;2022-10-17T15:45:21;11.85;;;1.90;;
71637;SDS011;59485;43.542;-5.676;2022-10-17T15:47:55;11.40;;;1.70;;
71637;SDS011;59485;43.542;-5.676;2022-10-17T15:50:29;15.63;;;1.87;;
71637;SDS011;59485;43.542;-5.676;2022-10-17T15:52:54;11.52;;;1.48;;
71637;SDS011;59485;43.542;-5.676;2022-10-17T15:55:20;13.53;;;2.47;;
71637;SDS011;59485;43.542;-5.676;2022-10-17T15:57:46;12.77;;;1.70;;
71637;SDS011;59485;43.542;-5.676;2022-10-17T16:00:17;14.63;;;2.58;;
71637;SDS011;59485;43.542;-5.676;2022-10-17T16:02:45;15.30;;;3.00;;
71637;SDS011;59485;43.542;-5.676;2022-10-17T16:05:21;13.00;;;1.93;;
71637;SDS011;59485;43.542;-5.676;2022-10-17T16:07:49;15.90;;;2.05;;
71637;SDS011;59485;43.542;-5.676;2022-10-17T16:10:16;16.42;;;2.28;;
71637;SDS011;59485;43.542;-5.676;2022-10-17T16:12:42;18.05;;;2.60;;
71637;SDS011;59485;43.542;-5.676;2022-10-17T16:15:26;19.35;;;2.35;;
71637;SDS011;59485;43.542;-5.676;2022-10-17T16:17:54;13.77;;;2.33;;
71637;SDS011;59485;43.542;-5.676;2022-10-17T16:20:20;14.00;;;2.70;;
71637;SDS011;59485;43.542;-5.676;2022-10-17T16:22:47;17.00;;;2.92;;
71637;SDS011;59485;43.542;-5.676;2022-10-17T16:25:23;18.80;;;3.00;;
71637;SDS011;59485;43.542;-5.676;2022-10-17T16:27:51;19.13;;;3.15;;
71637;SDS011;59485;43.542;-5.676;2022-10-17T16:30:19;17.97;;;2.90;;
71637;SDS011;59485;43.542;-5.676;2022-10-17T16:32:45;25.50;;;3.63;;
71637;SDS011;59485;43.542;-5.676;2022-10-17T16:35:16;19.30;;;2.80;;
71637;SDS011;59485;43.542;-5.676;2022-10-17T16:37:50;21.15;;;2.90;;
71637;SDS011;59485;43.542;-5.676;2022-10-17T16:40:16;20.07;;;3.60;;
71637;SDS011;59485;43.542;-5.676;2022-10-17T16:42:45;21.30;;;4.22;;
71637;SDS011;59485;43.542;-5.676;2022-10-17T16:45:14;21.00;;;4.07;;
71637;SDS011;59485;43.542;-5.676;2022-10-17T16:47:44;17.33;;;3.28;;
71637;SDS011;59485;43.542;-5.676;2022-10-17T16:50:10;15.20;;;2.72;;
71637;SDS011;59485;43.542;-5.676;2022-10-17T16:52:35;21.80;;;3.57;;
71637;SDS011;59485;43.542;-5.676;2022-10-17T16:55:01;20.88;;;3.30;;
71637;SDS011;59485;43.542;-5.676;2022-10-17T16:57:27;16.43;;;2.77;;